sensor_id;sensor_type;location;lat;lon;timestamp;temperature;humidity
39847;DHT22;25517;52.422;10.782;2023-03-01T00:01:31;-1.40;99.90
39847;DHT22;25517;52.422;10.782;2023-03-01T00:03:58;-1.40;99.90
39847;DHT22;25517;52.422;10.782;2023-03-01T00:06:25;-1.40;99.90
39847;DHT22;25517;52.422;10.782;2023-03-01T00:08:51;-1.30;99.90
39847;DHT22;25517;52.422;10.782;2023-03-01T00:11:23;-1.40;99.90
39847;DHT22;25517;52.422;10.782;2023-03-01T00:13:50;-1.40;99.90
39847;DHT22;25517;52.422;10.782;2023-03-01T00:16:29;-1.50;99.90
39847;DHT22;25517;52.422;10.782;2023-03-01T00:18:55;-1.50;99.90
39847;DHT22;25517;52.422;10.782;2023-03-01T00:21:22;-1.50;99.90
39847;DHT22;25517;52.422;10.782;2023-03-01T00:23:48;-1.50;99.90
39847;DHT22;25517;52.422;10.782;2023-03-01T00:26:15;-1.50;99.90
39847;DHT22;25517;52.422;10.782;2023-03-01T00:28:42;-1.50;99.90
39847;DHT22;25517;52.422;10.782;2023-03-01T00:31:13;-1.60;99.90
39847;DHT22;25517;52.422;10.782;2023-03-01T00:33:40;-1.60;99.90
39847;DHT22;25517;52.422;10.782;2023-03-01T00:36:05;-1.60;99.90
39847;DHT22;25517;52.422;10.782;2023-03-01T00:38:38;-1.60;99.90
39847;DHT22;25517;52.422;10.782;2023-03-01T00:41:12;-1.60;99.90
39847;DHT22;25517;52.422;10.782;2023-03-01T00:43:38;-1.60;99.90
39847;DHT22;25517;52.422;10.782;2023-03-01T00:46:08;-1.60;99.90
39847;DHT22;25517;52.422;10.782;2023-03-01T00:48:35;-1.70;99.90
39847;DHT22;25517;52.422;10.782;2023-03-01T00:53:37;-1.60;99.90
39847;DHT22;25517;52.422;10.782;2023-03-01T00:56:04;-1.70;99.90
39847;DHT22;25517;52.422;10.782;2023-03-01T00:58:30;-1.70;99.90
39847;DHT22;25517;52.422;10.782;2023-03-01T01:00:56;-1.70;99.90
39847;DHT22;25517;52.422;10.782;2023-03-01T01:03:21;-1.70;99.90
39847;DHT22;25517;52.422;10.782;2023-03-01T01:05:48;-1.70;99.90
39847;DHT22;25517;52.422;10.782;2023-03-01T01:08:14;-1.80;99.90
39847;DHT22;25517;52.422;10.782;2023-03-01T01:10:39;-1.80;99.90
39847;DHT22;25517;52.422;10.782;2023-03-01T01:13:05;-1.80;99.90
39847;DHT22;25517;52.422;10.782;2023-03-01T01:15:34;-1.90;99.90
39847;DHT22;25517;52.422;10.782;2023-03-01T01:18:00;-2.00;99.90
39847;DHT22;25517;52.422;10.782;2023-03-01T01:20:26;-2.00;99.90
39847;DHT22;25517;52.422;10.782;2023-03-01T01:22:51;-2.00;99.90
39847;DHT22;25517;52.422;10.782;2023-03-01T01:25:17;-2.00;99.90
39847;DHT22;25517;52.422;10.782;2023-03-01T01:27:43;-2.10;99.90
39847;DHT22;25517;52.422;10.782;2023-03-01T01:30:09;-2.10;99.90
39847;DHT22;25517;52.422;10.782;2023-03-01T01:32:34;-2.10;99.90
39847;DHT22;25517;52.422;10.782;2023-03-01T01:35:00;-2.10;99.90
39847;DHT22;25517;52.422;10.782;2023-03-01T01:37:25;-2.20;99.90
39847;DHT22;25517;52.422;10.782;2023-03-01T01:40:00;-2.20;99.90
39847;DHT22;25517;52.422;10.782;2023-03-01T01:42:27;-2.20;99.90
39847;DHT22;25517;52.422;10.782;2023-03-01T01:45:26;-2.20;99.90
39847;DHT22;25517;52.422;10.782;2023-03-01T01:47:54;-2.20;99.90
39847;DHT22;25517;52.422;10.782;2023-03-01T01:50:21;-2.30;99.90
39847;DHT22;25517;52.422;10.782;2023-03-01T01:52:48;-2.30;99.90
39847;DHT22;25517;52.422;10.782;2023-03-01T01:55:18;-2.30;99.90
39847;DHT22;25517;52.422;10.782;2023-03-01T01:57:49;-2.20;99.90
39847;DHT22;25517;52.422;10.782;2023-03-01T02:00:18;-2.30;99.90
39847;DHT22;25517;52.422;10.782;2023-03-01T02:02:45;-2.30;99.90
39847;DHT22;25517;52.422;10.782;2023-03-01T02:07:44;-2.30;99.90
39847;DHT22;25517;52.422;10.782;2023-03-01T02:10:10;-2.40;99.90
39847;DHT22;25517;52.422;10.782;2023-03-01T02:12:36;-2.40;99.90
39847;DHT22;25517;52.422;10.782;2023-03-01T02:15:04;-2.40;99.90
39847;DHT22;25517;52.422;10.782;2023-03-01T02:17:29;-2.40;99.90
39847;DHT22;25517;52.422;10.782;2023-03-01T02:20:22;-2.40;99.90
39847;DHT22;25517;52.422;10.782;2023-03-01T02:22:50;-2.50;99.90
39847;DHT22;25517;52.422;10.782;2023-03-01T02:30:22;-2.50;99.90
39847;DHT22;25517;52.422;10.782;2023-03-01T02:32:48;-2.60;99.90
39847;DHT22;25517;52.422;10.782;2023-03-01T02:35:16;-2.50;99.90
39847;DHT22;25517;52.422;10.782;2023-03-01T02:37:43;-2.60;99.90
39847;DHT22;25517;52.422;10.782;2023-03-01T02:40:16;-2.60;99.90
39847;DHT22;25517;52.422;10.782;2023-03-01T02:42:57;-2.60;99.90
39847;DHT22;25517;52.422;10.782;2023-03-01T02:45:24;-2.60;99.90
39847;DHT22;25517;52.422;10.782;2023-03-01T02:47:50;-2.60;99.90
39847;DHT22;25517;52.422;10.782;2023-03-01T02:55:56;-2.70;99.90
39847;DHT22;25517;52.422;10.782;2023-03-01T02:58:22;-2.70;99.90
39847;DHT22;25517;52.422;10.782;2023-03-01T03:00:47;-2.70;99.90
39847;DHT22;25517;52.422;10.782;2023-03-01T03:03:16;-2.70;99.90
39847;DHT22;25517;52.422;10.782;2023-03-01T03:05:42;-2.60;99.90
39847;DHT22;25517;52.422;10.782;2023-03-01T03:08:08;-2.60;99.90
39847;DHT22;25517;52.422;10.782;2023-03-01T03:10:36;-2.60;99.90
39847;DHT22;25517;52.422;10.782;2023-03-01T03:13:08;-2.60;99.90
39847;DHT22;25517;52.422;10.782;2023-03-01T03:15:34;-2.70;99.90
39847;DHT22;25517;52.422;10.782;2023-03-01T03:18:03;-2.60;99.90
39847;DHT22;25517;52.422;10.782;2023-03-01T03:20:29;-2.60;99.90
39847;DHT22;25517;52.422;10.782;2023-03-01T03:22:57;-2.60;99.90
39847;DHT22;25517;52.422;10.782;2023-03-01T03:25:25;-2.60;99.90
39847;DHT22;25517;52.422;10.782;2023-03-01T03:27:51;-2.60;99.90
39847;DHT22;25517;52.422;10.782;2023-03-01T03:30:23;-2.70;99.90
39847;DHT22;25517;52.422;10.782;2023-03-01T03:32:49;-2.80;99.90
39847;DHT22;25517;52.422;10.782;2023-03-01T03:35:24;-2.90;99.90
39847;DHT22;25517;52.422;10.782;2023-03-01T03:37:51;-2.90;99.90
39847;DHT22;25517;52.422;10.782;2023-03-01T03:40:34;-2.80;99.90
39847;DHT22;25517;52.422;10.782;2023-03-01T03:43:01;-3.00;99.90
39847;DHT22;25517;52.422;10.782;2023-03-01T03:45:27;-3.10;99.90
39847;DHT22;25517;52.422;10.782;2023-03-01T03:47:53;-3.20;99.90
39847;DHT22;25517;52.422;10.782;2023-03-01T03:50:18;-3.20;99.90
39847;DHT22;25517;52.422;10.782;2023-03-01T03:52:44;-3.10;99.90
39847;DHT22;25517;52.422;10.782;2023-03-01T03:55:11;-3.10;99.90
39847;DHT22;25517;52.422;10.782;2023-03-01T03:57:38;-3.00;99.90
39847;DHT22;25517;52.422;10.782;2023-03-01T04:00:06;-3.00;99.90
39847;DHT22;25517;52.422;10.782;2023-03-01T04:02:44;-3.00;99.90
39847;DHT22;25517;52.422;10.782;2023-03-01T04:05:11;-3.10;99.90
39847;DHT22;25517;52.422;10.782;2023-03-01T04:07:38;-3.00;99.90
39847;DHT22;25517;52.422;10.782;2023-03-01T04:10:05;-3.00;99.90
39847;DHT22;25517;52.422;10.782;2023-03-01T04:12:32;-3.00;99.90
39847;DHT22;25517;52.422;10.782;2023-03-01T04:14:59;-2.90;99.90
39847;DHT22;25517;52.422;10.782;2023-03-01T04:17:25;-2.90;99.90
39847;DHT22;25517;52.422;10.782;2023-03-01T04:19:51;-2.90;99.90
39847;DHT22;25517;52.422;10.782;2023-03-01T04:22:17;-2.90;99.90
39847;DHT22;25517;52.422;10.782;2023-03-01T04:24:43;-2.90;99.90
39847;DHT22;25517;52.422;10.782;2023-03-01T04:27:09;-2.90;99.90
39847;DHT22;25517;52.422;10.782;2023-03-01T04:29:35;-3.00;99.90
39847;DHT22;25517;52.422;10.782;2023-03-01T04:32:00;-3.00;99.90
39847;DHT22;25517;52.422;10.782;2023-03-01T04:34:26;-3.10;99.90
39847;DHT22;25517;52.422;10.782;2023-03-01T04:36:52;-3.10;99.90
39847;DHT22;25517;52.422;10.782;2023-03-01T04:39:18;-3.10;99.90
39847;DHT22;25517;52.422;10.782;2023-03-01T04:41:43;-3.10;99.90
39847;DHT22;25517;52.422;10.782;2023-03-01T04:44:09;-3.10;99.90
39847;DHT22;25517;52.422;10.782;2023-03-01T04:46:35;-3.10;99.90
39847;DHT22;25517;52.422;10.782;2023-03-01T04:49:02;-3.10;99.90
39847;DHT22;25517;52.422;10.782;2023-03-01T04:51:28;-3.10;99.90
39847;DHT22;25517;52.422;10.782;2023-03-01T04:53:54;-3.10;99.90
39847;DHT22;25517;52.422;10.782;2023-03-01T04:56:19;-3.10;99.90
39847;DHT22;25517;52.422;10.782;2023-03-01T04:58:46;-3.10;99.90
39847;DHT22;25517;52.422;10.782;2023-03-01T05:01:13;-3.10;99.90
39847;DHT22;25517;52.422;10.782;2023-03-01T05:03:42;-3.10;99.90
39847;DHT22;25517;52.422;10.782;2023-03-01T05:06:08;-3.10;99.90
39847;DHT22;25517;52.422;10.782;2023-03-01T05:08:34;-3.10;99.90
39847;DHT22;25517;52.422;10.782;2023-03-01T05:11:02;-3.10;99.90
39847;DHT22;25517;52.422;10.782;2023-03-01T05:13:28;-3.10;99.90
39847;DHT22;25517;52.422;10.782;2023-03-01T05:15:57;-3.10;99.90
39847;DHT22;25517;52.422;10.782;2023-03-01T05:18:24;-3.20;99.90
39847;DHT22;25517;52.422;10.782;2023-03-01T05:21:00;-3.20;99.90
39847;DHT22;25517;52.422;10.782;2023-03-01T05:23:26;-3.20;99.90
39847;DHT22;25517;52.422;10.782;2023-03-01T05:25:52;-3.30;99.90
39847;DHT22;25517;52.422;10.782;2023-03-01T05:28:19;-3.30;99.90
39847;DHT22;25517;52.422;10.782;2023-03-01T05:30:46;-3.40;99.90
39847;DHT22;25517;52.422;10.782;2023-03-01T05:33:12;-3.40;99.90
39847;DHT22;25517;52.422;10.782;2023-03-01T05:35:44;-3.40;99.90
39847;DHT22;25517;52.422;10.782;2023-03-01T05:38:11;-3.40;99.90
39847;DHT22;25517;52.422;10.782;2023-03-01T05:40:44;-3.30;99.90
39847;DHT22;25517;52.422;10.782;2023-03-01T05:43:12;-3.30;99.90
39847;DHT22;25517;52.422;10.782;2023-03-01T05:45:38;-3.30;99.90
39847;DHT22;25517;52.422;10.782;2023-03-01T05:48:05;-3.30;99.90
39847;DHT22;25517;52.422;10.782;2023-03-01T05:50:34;-3.30;99.90
39847;DHT22;25517;52.422;10.782;2023-03-01T05:53:15;-3.30;99.90
39847;DHT22;25517;52.422;10.782;2023-03-01T05:55:41;-3.30;99.90
39847;DHT22;25517;52.422;10.782;2023-03-01T05:58:14;-3.30;99.90
39847;DHT22;25517;52.422;10.782;2023-03-01T06:00:40;-3.40;99.90
39847;DHT22;25517;52.422;10.782;2023-03-01T06:03:06;-3.40;99.90
39847;DHT22;25517;52.422;10.782;2023-03-01T06:05:32;-3.40;99.90
39847;DHT22;25517;52.422;10.782;2023-03-01T06:08:01;-3.40;99.90
39847;DHT22;25517;52.422;10.782;2023-03-01T06:10:27;-3.40;99.90
39847;DHT22;25517;52.422;10.782;2023-03-01T06:12:53;-3.40;99.90
39847;DHT22;25517;52.422;10.782;2023-03-01T06:15:19;-3.40;99.90
39847;DHT22;25517;52.422;10.782;2023-03-01T06:17:46;-3.40;99.90
39847;DHT22;25517;52.422;10.782;2023-03-01T06:20:17;-3.50;99.90
39847;DHT22;25517;52.422;10.782;2023-03-01T06:22:44;-3.40;99.90
39847;DHT22;25517;52.422;10.782;2023-03-01T06:25:10;-3.40;99.90
39847;DHT22;25517;52.422;10.782;2023-03-01T06:27:38;-3.40;99.90
39847;DHT22;25517;52.422;10.782;2023-03-01T06:30:03;-3.30;99.90
39847;DHT22;25517;52.422;10.782;2023-03-01T06:32:29;-3.30;99.90
39847;DHT22;25517;52.422;10.782;2023-03-01T06:34:56;-3.30;99.90
39847;DHT22;25517;52.422;10.782;2023-03-01T06:37:21;-3.30;99.90
39847;DHT22;25517;52.422;10.782;2023-03-01T06:39:47;-3.30;99.90
39847;DHT22;25517;52.422;10.782;2023-03-01T06:42:12;-3.30;99.90
39847;DHT22;25517;52.422;10.782;2023-03-01T06:44:38;-3.20;99.90
39847;DHT22;25517;52.422;10.782;2023-03-01T06:47:04;-3.20;99.90
39847;DHT22;25517;52.422;10.782;2023-03-01T06:49:29;-3.20;99.90
39847;DHT22;25517;52.422;10.782;2023-03-01T06:51:55;-3.10;99.90
39847;DHT22;25517;52.422;10.782;2023-03-01T06:54:21;-3.10;99.90
39847;DHT22;25517;52.422;10.782;2023-03-01T06:56:48;-3.00;99.90
39847;DHT22;25517;52.422;10.782;2023-03-01T06:59:14;-2.90;99.90
39847;DHT22;25517;52.422;10.782;2023-03-01T07:01:40;-2.90;99.90
39847;DHT22;25517;52.422;10.782;2023-03-01T07:04:05;-2.80;99.90
39847;DHT22;25517;52.422;10.782;2023-03-01T07:06:31;-2.70;99.90
39847;DHT22;25517;52.422;10.782;2023-03-01T07:08:57;-2.70;99.90
39847;DHT22;25517;52.422;10.782;2023-03-01T07:11:22;-2.70;99.90
39847;DHT22;25517;52.422;10.782;2023-03-01T07:13:48;-2.60;99.90
39847;DHT22;25517;52.422;10.782;2023-03-01T07:16:14;-2.60;99.90
39847;DHT22;25517;52.422;10.782;2023-03-01T07:18:40;-2.60;99.90
39847;DHT22;25517;52.422;10.782;2023-03-01T07:21:07;-2.50;99.90
39847;DHT22;25517;52.422;10.782;2023-03-01T07:23:32;-2.50;99.90
39847;DHT22;25517;52.422;10.782;2023-03-01T07:25:58;-2.40;99.90
39847;DHT22;25517;52.422;10.782;2023-03-01T07:28:24;-2.40;99.90
39847;DHT22;25517;52.422;10.782;2023-03-01T07:30:50;-2.30;99.90
39847;DHT22;25517;52.422;10.782;2023-03-01T07:33:16;-2.30;99.90
39847;DHT22;25517;52.422;10.782;2023-03-01T07:35:41;-2.20;99.90
39847;DHT22;25517;52.422;10.782;2023-03-01T07:38:07;-2.10;99.90
39847;DHT22;25517;52.422;10.782;2023-03-01T07:40:33;-2.10;99.90
39847;DHT22;25517;52.422;10.782;2023-03-01T07:42:59;-2.00;99.90
39847;DHT22;25517;52.422;10.782;2023-03-01T07:45:25;-1.90;99.90
39847;DHT22;25517;52.422;10.782;2023-03-01T07:47:55;-1.80;99.90
39847;DHT22;25517;52.422;10.782;2023-03-01T07:50:21;-1.80;99.90
39847;DHT22;25517;52.422;10.782;2023-03-01T07:52:48;-1.70;99.90
39847;DHT22;25517;52.422;10.782;2023-03-01T07:55:15;-1.60;99.90
39847;DHT22;25517;52.422;10.782;2023-03-01T07:57:41;-1.50;99.90
39847;DHT22;25517;52.422;10.782;2023-03-01T08:00:09;-1.50;99.90
39847;DHT22;25517;52.422;10.782;2023-03-01T08:02:35;-1.40;99.90
39847;DHT22;25517;52.422;10.782;2023-03-01T08:05:00;-1.30;99.90
39847;DHT22;25517;52.422;10.782;2023-03-01T08:07:26;-1.20;99.90
39847;DHT22;25517;52.422;10.782;2023-03-01T08:09:51;-1.20;99.90
39847;DHT22;25517;52.422;10.782;2023-03-01T08:12:17;-1.10;99.90
39847;DHT22;25517;52.422;10.782;2023-03-01T08:14:42;-1.00;99.90
39847;DHT22;25517;52.422;10.782;2023-03-01T08:17:08;-0.80;99.90
39847;DHT22;25517;52.422;10.782;2023-03-01T08:19:34;-0.70;99.90
39847;DHT22;25517;52.422;10.782;2023-03-01T08:22:01;-0.60;99.90
39847;DHT22;25517;52.422;10.782;2023-03-01T08:24:27;-0.50;99.90
39847;DHT22;25517;52.422;10.782;2023-03-01T08:26:52;-0.40;99.90
39847;DHT22;25517;52.422;10.782;2023-03-01T08:29:18;-0.40;99.90
39847;DHT22;25517;52.422;10.782;2023-03-01T08:31:44;-0.30;99.90
39847;DHT22;25517;52.422;10.782;2023-03-01T08:34:12;-0.20;99.90
39847;DHT22;25517;52.422;10.782;2023-03-01T08:36:40;-0.10;99.90
39847;DHT22;25517;52.422;10.782;2023-03-01T08:39:07;0.00;99.90
39847;DHT22;25517;52.422;10.782;2023-03-01T08:41:33;0.20;99.90
39847;DHT22;25517;52.422;10.782;2023-03-01T08:43:59;0.30;99.90
39847;DHT22;25517;52.422;10.782;2023-03-01T08:46:26;0.40;99.90
39847;DHT22;25517;52.422;10.782;2023-03-01T08:48:52;0.50;99.90
39847;DHT22;25517;52.422;10.782;2023-03-01T08:51:19;0.60;99.90
39847;DHT22;25517;52.422;10.782;2023-03-01T08:53:45;0.80;99.90
39847;DHT22;25517;52.422;10.782;2023-03-01T08:56:11;1.00;99.90
39847;DHT22;25517;52.422;10.782;2023-03-01T08:58:37;1.20;99.90
39847;DHT22;25517;52.422;10.782;2023-03-01T09:01:09;1.40;99.90
39847;DHT22;25517;52.422;10.782;2023-03-01T09:03:36;1.60;99.90
39847;DHT22;25517;52.422;10.782;2023-03-01T09:06:02;1.70;99.90
39847;DHT22;25517;52.422;10.782;2023-03-01T09:08:28;1.90;99.90
39847;DHT22;25517;52.422;10.782;2023-03-01T09:10:54;2.10;99.90
39847;DHT22;25517;52.422;10.782;2023-03-01T09:13:19;2.30;99.90
39847;DHT22;25517;52.422;10.782;2023-03-01T09:15:45;2.90;99.90
39847;DHT22;25517;52.422;10.782;2023-03-01T09:18:10;4.40;99.90
39847;DHT22;25517;52.422;10.782;2023-03-01T09:20:36;6.70;99.70
39847;DHT22;25517;52.422;10.782;2023-03-01T09:23:01;9.00;94.20
39847;DHT22;25517;52.422;10.782;2023-03-01T09:25:28;11.30;87.10
39847;DHT22;25517;52.422;10.782;2023-03-01T09:27:54;13.30;76.90
39847;DHT22;25517;52.422;10.782;2023-03-01T09:30:20;14.90;65.50
39847;DHT22;25517;52.422;10.782;2023-03-01T09:32:46;16.10;59.80
39847;DHT22;25517;52.422;10.782;2023-03-01T09:35:12;17.20;57.90
39847;DHT22;25517;52.422;10.782;2023-03-01T09:37:38;18.10;52.50
39847;DHT22;25517;52.422;10.782;2023-03-01T09:40:06;18.00;51.30
39847;DHT22;25517;52.422;10.782;2023-03-01T09:42:35;19.10;48.90
39847;DHT22;25517;52.422;10.782;2023-03-01T09:45:10;19.10;49.00
39847;DHT22;25517;52.422;10.782;2023-03-01T09:47:36;19.20;48.50
39847;DHT22;25517;52.422;10.782;2023-03-01T09:52:41;19.90;46.20
39847;DHT22;25517;52.422;10.782;2023-03-01T09:55:11;19.90;46.90
39847;DHT22;25517;52.422;10.782;2023-03-01T09:57:46;20.40;44.50
39847;DHT22;25517;52.422;10.782;2023-03-01T10:11:24;22.00;41.60
39847;DHT22;25517;52.422;10.782;2023-03-01T10:14:03;21.40;42.00
39847;DHT22;25517;52.422;10.782;2023-03-01T10:19:32;21.90;41.90
39847;DHT22;25517;52.422;10.782;2023-03-01T10:22:13;22.10;41.40
39847;DHT22;25517;52.422;10.782;2023-03-01T10:24:39;21.30;41.90
39847;DHT22;25517;52.422;10.782;2023-03-01T10:27:09;21.50;42.30
39847;DHT22;25517;52.422;10.782;2023-03-01T10:29:48;22.10;39.50
39847;DHT22;25517;52.422;10.782;2023-03-01T10:32:17;22.20;40.30
39847;DHT22;25517;52.422;10.782;2023-03-01T10:34:43;22.30;40.60
39847;DHT22;25517;52.422;10.782;2023-03-01T10:39:36;22.30;39.20
39847;DHT22;25517;52.422;10.782;2023-03-01T10:42:04;22.80;39.60
39847;DHT22;25517;52.422;10.782;2023-03-01T10:44:57;22.90;39.80
39847;DHT22;25517;52.422;10.782;2023-03-01T10:47:25;22.80;39.40
39847;DHT22;25517;52.422;10.782;2023-03-01T10:50:00;23.30;37.60
39847;DHT22;25517;52.422;10.782;2023-03-01T10:52:37;22.80;38.20
39847;DHT22;25517;52.422;10.782;2023-03-01T10:55:39;21.90;38.10
39847;DHT22;25517;52.422;10.782;2023-03-01T10:58:18;21.70;39.60
39847;DHT22;25517;52.422;10.782;2023-03-01T11:03:25;22.60;38.20
39847;DHT22;25517;52.422;10.782;2023-03-01T11:08:47;22.80;38.90
39847;DHT22;25517;52.422;10.782;2023-03-01T11:11:30;22.30;37.40
39847;DHT22;25517;52.422;10.782;2023-03-01T11:16:42;22.70;36.90
39847;DHT22;25517;52.422;10.782;2023-03-01T11:21:57;23.10;36.30
39847;DHT22;25517;52.422;10.782;2023-03-01T11:24:27;23.10;37.20
39847;DHT22;25517;52.422;10.782;2023-03-01T11:26:54;22.60;38.00
39847;DHT22;25517;52.422;10.782;2023-03-01T11:29:36;23.00;35.70
39847;DHT22;25517;52.422;10.782;2023-03-01T11:32:07;22.50;36.50
39847;DHT22;25517;52.422;10.782;2023-03-01T11:35:19;22.80;37.50
39847;DHT22;25517;52.422;10.782;2023-03-01T11:37:44;22.60;35.60
39847;DHT22;25517;52.422;10.782;2023-03-01T11:40:13;21.90;38.10
39847;DHT22;25517;52.422;10.782;2023-03-01T11:42:50;22.30;37.30
39847;DHT22;25517;52.422;10.782;2023-03-01T11:45:17;21.40;38.30
39847;DHT22;25517;52.422;10.782;2023-03-01T11:55:36;21.30;39.00
39847;DHT22;25517;52.422;10.782;2023-03-01T12:00:59;20.90;39.60
39847;DHT22;25517;52.422;10.782;2023-03-01T12:03:28;21.00;38.60
39847;DHT22;25517;52.422;10.782;2023-03-01T12:17:49;19.80;40.70
39847;DHT22;25517;52.422;10.782;2023-03-01T12:20:31;19.70;40.40
39847;DHT22;25517;52.422;10.782;2023-03-01T12:29:08;20.10;38.90
39847;DHT22;25517;52.422;10.782;2023-03-01T12:31:47;20.10;39.70
39847;DHT22;25517;52.422;10.782;2023-03-01T12:40:29;18.20;41.90
39847;DHT22;25517;52.422;10.782;2023-03-01T12:48:35;17.50;43.20
39847;DHT22;25517;52.422;10.782;2023-03-01T12:51:09;16.90;43.20
39847;DHT22;25517;52.422;10.782;2023-03-01T12:53:40;16.70;43.80
39847;DHT22;25517;52.422;10.782;2023-03-01T12:56:14;16.40;46.20
39847;DHT22;25517;52.422;10.782;2023-03-01T12:59:02;15.80;45.80
39847;DHT22;25517;52.422;10.782;2023-03-01T13:08:02;14.70;48.10
39847;DHT22;25517;52.422;10.782;2023-03-01T13:13:18;14.50;48.20
39847;DHT22;25517;52.422;10.782;2023-03-01T13:15:44;14.50;49.20
39847;DHT22;25517;52.422;10.782;2023-03-01T13:33:57;13.50;51.40
39847;DHT22;25517;52.422;10.782;2023-03-01T13:38:59;13.60;50.10
39847;DHT22;25517;52.422;10.782;2023-03-01T13:46:56;13.20;52.90
39847;DHT22;25517;52.422;10.782;2023-03-01T13:49:26;13.20;52.20
39847;DHT22;25517;52.422;10.782;2023-03-01T13:51:52;12.90;52.30
39847;DHT22;25517;52.422;10.782;2023-03-01T13:54:29;13.00;51.70
39847;DHT22;25517;52.422;10.782;2023-03-01T13:56:57;13.00;51.70
39847;DHT22;25517;52.422;10.782;2023-03-01T13:59:23;12.90;55.20
39847;DHT22;25517;52.422;10.782;2023-03-01T14:02:00;13.20;54.70
39847;DHT22;25517;52.422;10.782;2023-03-01T14:04:31;13.10;52.80
39847;DHT22;25517;52.422;10.782;2023-03-01T14:09:41;13.30;53.00
39847;DHT22;25517;52.422;10.782;2023-03-01T14:15:43;12.90;53.30
39847;DHT22;25517;52.422;10.782;2023-03-01T14:20:45;12.70;53.20
39847;DHT22;25517;52.422;10.782;2023-03-01T14:23:20;12.60;51.20
39847;DHT22;25517;52.422;10.782;2023-03-01T14:25:54;12.60;51.50
39847;DHT22;25517;52.422;10.782;2023-03-01T14:28:24;12.80;51.00
39847;DHT22;25517;52.422;10.782;2023-03-01T14:30:54;12.60;50.40
39847;DHT22;25517;52.422;10.782;2023-03-01T14:33:30;12.40;51.70
39847;DHT22;25517;52.422;10.782;2023-03-01T14:38:32;12.60;50.50
39847;DHT22;25517;52.422;10.782;2023-03-01T14:41:00;12.40;50.20
39847;DHT22;25517;52.422;10.782;2023-03-01T14:43:27;12.50;50.00
39847;DHT22;25517;52.422;10.782;2023-03-01T14:45:54;12.40;50.00
39847;DHT22;25517;52.422;10.782;2023-03-01T14:48:21;12.50;48.90
39847;DHT22;25517;52.422;10.782;2023-03-01T14:50:47;12.40;49.60
39847;DHT22;25517;52.422;10.782;2023-03-01T14:53:23;12.50;48.80
39847;DHT22;25517;52.422;10.782;2023-03-01T14:55:55;12.50;49.10
39847;DHT22;25517;52.422;10.782;2023-03-01T14:58:23;12.40;50.70
39847;DHT22;25517;52.422;10.782;2023-03-01T15:01:00;12.50;50.40
39847;DHT22;25517;52.422;10.782;2023-03-01T15:03:41;12.80;49.90
39847;DHT22;25517;52.422;10.782;2023-03-01T15:06:08;12.90;49.80
39847;DHT22;25517;52.422;10.782;2023-03-01T15:08:35;12.70;49.80
39847;DHT22;25517;52.422;10.782;2023-03-01T15:11:15;12.70;48.90
39847;DHT22;25517;52.422;10.782;2023-03-01T15:13:42;12.40;50.90
39847;DHT22;25517;52.422;10.782;2023-03-01T15:16:12;12.30;50.40
39847;DHT22;25517;52.422;10.782;2023-03-01T15:18:45;12.00;51.80
39847;DHT22;25517;52.422;10.782;2023-03-01T15:21:23;11.90;51.50
39847;DHT22;25517;52.422;10.782;2023-03-01T15:23:54;11.80;52.10
39847;DHT22;25517;52.422;10.782;2023-03-01T15:26:43;11.50;53.70
39847;DHT22;25517;52.422;10.782;2023-03-01T15:29:17;11.20;52.20
39847;DHT22;25517;52.422;10.782;2023-03-01T15:31:56;11.10;52.50
39847;DHT22;25517;52.422;10.782;2023-03-01T15:34:28;10.80;51.70
39847;DHT22;25517;52.422;10.782;2023-03-01T15:36:56;10.50;53.00
39847;DHT22;25517;52.422;10.782;2023-03-01T15:39:34;10.20;52.30
39847;DHT22;25517;52.422;10.782;2023-03-01T15:42:07;10.00;52.60
39847;DHT22;25517;52.422;10.782;2023-03-01T15:44:35;10.00;53.60
39847;DHT22;25517;52.422;10.782;2023-03-01T15:47:29;9.90;52.90
39847;DHT22;25517;52.422;10.782;2023-03-01T15:49:57;9.80;53.60
39847;DHT22;25517;52.422;10.782;2023-03-01T15:52:29;9.70;52.60
39847;DHT22;25517;52.422;10.782;2023-03-01T15:55:01;9.60;53.80
39847;DHT22;25517;52.422;10.782;2023-03-01T15:57:27;9.60;53.90
39847;DHT22;25517;52.422;10.782;2023-03-01T15:59:53;9.40;53.80
39847;DHT22;25517;52.422;10.782;2023-03-01T16:02:18;9.30;54.10
39847;DHT22;25517;52.422;10.782;2023-03-01T16:04:46;9.10;54.50
39847;DHT22;25517;52.422;10.782;2023-03-01T16:07:12;9.00;55.60
39847;DHT22;25517;52.422;10.782;2023-03-01T16:09:37;8.80;55.60
39847;DHT22;25517;52.422;10.782;2023-03-01T16:12:03;8.60;56.70
39847;DHT22;25517;52.422;10.782;2023-03-01T16:14:29;8.50;58.80
39847;DHT22;25517;52.422;10.782;2023-03-01T16:16:55;8.40;58.30
39847;DHT22;25517;52.422;10.782;2023-03-01T16:19:21;8.20;59.80
39847;DHT22;25517;52.422;10.782;2023-03-01T16:21:46;8.10;60.80
39847;DHT22;25517;52.422;10.782;2023-03-01T16:24:14;8.10;60.60
39847;DHT22;25517;52.422;10.782;2023-03-01T16:26:39;7.90;60.60
39847;DHT22;25517;52.422;10.782;2023-03-01T16:29:05;7.80;60.80
39847;DHT22;25517;52.422;10.782;2023-03-01T16:31:31;7.80;61.40
39847;DHT22;25517;52.422;10.782;2023-03-01T16:33:57;7.70;60.80
39847;DHT22;25517;52.422;10.782;2023-03-01T16:36:24;7.60;61.80
39847;DHT22;25517;52.422;10.782;2023-03-01T16:38:51;7.40;62.00
39847;DHT22;25517;52.422;10.782;2023-03-01T16:41:19;7.30;63.00
39847;DHT22;25517;52.422;10.782;2023-03-01T16:43:45;7.20;61.60
39847;DHT22;25517;52.422;10.782;2023-03-01T16:46:15;7.10;63.10
39847;DHT22;25517;52.422;10.782;2023-03-01T16:48:41;7.00;62.90
39847;DHT22;25517;52.422;10.782;2023-03-01T16:51:07;7.00;64.20
39847;DHT22;25517;52.422;10.782;2023-03-01T16:53:34;7.00;64.00
39847;DHT22;25517;52.422;10.782;2023-03-01T16:56:05;6.80;63.60
39847;DHT22;25517;52.422;10.782;2023-03-01T16:58:31;6.70;63.80
39847;DHT22;25517;52.422;10.782;2023-03-01T17:01:04;6.60;64.70
39847;DHT22;25517;52.422;10.782;2023-03-01T17:03:31;6.50;66.90
39847;DHT22;25517;52.422;10.782;2023-03-01T17:05:56;6.40;68.20
39847;DHT22;25517;52.422;10.782;2023-03-01T17:08:22;6.20;66.60
39847;DHT22;25517;52.422;10.782;2023-03-01T17:10:47;6.20;68.50
39847;DHT22;25517;52.422;10.782;2023-03-01T17:13:13;6.10;70.70
39847;DHT22;25517;52.422;10.782;2023-03-01T17:15:41;6.00;69.30
39847;DHT22;25517;52.422;10.782;2023-03-01T17:18:07;5.90;70.70
39847;DHT22;25517;52.422;10.782;2023-03-01T17:20:34;5.90;71.70
39847;DHT22;25517;52.422;10.782;2023-03-01T17:22:59;5.80;73.80
39847;DHT22;25517;52.422;10.782;2023-03-01T17:25:25;5.70;74.50
39847;DHT22;25517;52.422;10.782;2023-03-01T17:27:50;5.60;74.50
39847;DHT22;25517;52.422;10.782;2023-03-01T17:30:16;5.50;73.40
39847;DHT22;25517;52.422;10.782;2023-03-01T17:32:42;5.50;73.30
39847;DHT22;25517;52.422;10.782;2023-03-01T17:35:08;5.50;74.10
39847;DHT22;25517;52.422;10.782;2023-03-01T17:37:36;5.40;75.60